Time;durP1;ratioP1;P1;durP2;ratioP2;P2;SDS_P1;SDS_P2;PMS_P1;PMS_P2;Temp;Humidity;BMP_temperature;BMP_pressure;BME280_temperature;BME280_humidity;BME280_pressure;Samples;Min_cycle;Max_cycle;Signal;HPM_P1;HPM_P2
2022/12/29 00:01:16;;;;;;;7.70;5.68;;;;;;;9.61;100.00;99815.94;4982844;28;20030;-89
2022/12/29 00:03:42;;;;;;;8.48;6.43;;;;;;;9.61;100.00;99815.16;4988408;28;20034;-89
2022/12/29 00:06:07;;;;;;;10.52;6.90;;;;;;;9.67;100.00;99825.53;4992088;28;20081;-89
2022/12/29 00:08:41;;;;;;;9.48;6.13;;;;;;;9.51;100.00;99792.41;4991074;28;20027;-89
2022/12/29 00:11:19;;;;;;;9.23;5.95;;;;;;;9.68;100.00;99807.59;4991425;28;20026;-88
2022/12/29 00:16:30;;;;;;;10.23;6.63;;;;;;;9.71;100.00;99805.97;4993999;28;20040;-88
2022/12/29 00:18:55;;;;;;;9.75;6.38;;;;;;;9.76;100.00;99803.59;4990887;28;20434;-89
2022/12/29 00:35:31;;;;;;;9.75;6.05;;;;;;;9.72;100.00;99777.66;4987968;28;20037;-89
2022/12/29 00:46:17;;;;;;;10.73;5.15;;;;;;;9.87;100.00;99755.28;4992863;28;20053;-89
2022/12/29 00:51:26;;;;;;;9.52;5.18;;;;;;;9.89;100.00;99741.72;4988922;28;21996;-89
2022/12/29 00:53:52;;;;;;;7.63;4.75;;;;;;;9.91;100.00;99740.09;5006017;28;20034;-87
2022/12/29 00:56:17;;;;;;;6.90;4.75;;;;;;;9.89;100.00;99725.72;4991176;28;20034;-87
2022/12/29 00:58:42;;;;;;;10.02;5.53;;;;;;;9.84;100.00;99728.13;4989905;28;20033;-89
2022/12/29 01:01:08;;;;;;;5.78;4.90;;;;;;;9.92;100.00;99735.31;4987914;28;20034;-88
2022/12/29 01:03:36;;;;;;;13.82;4.78;;;;;;;9.90;100.00;99707.75;4990707;28;20044;-90
2022/12/29 01:06:03;;;;;;;8.10;4.13;;;;;;;9.92;100.00;99710.94;5004980;28;20027;-90
2022/12/29 01:08:29;;;;;;;5.20;4.15;;;;;;;9.95;100.00;99718.53;4991963;28;20415;-88
2022/12/29 01:11:08;;;;;;;5.78;4.32;;;;;;;9.93;100.00;99698.56;5004222;28;20752;-89
2022/12/29 01:13:34;;;;;;;5.13;3.75;;;;;;;9.92;100.00;99691.38;5000463;28;20081;-89
2022/12/29 01:15:59;;;;;;;7.72;4.20;;;;;;;9.96;100.00;99697.75;4992381;28;20711;-90
2022/12/29 01:18:26;;;;;;;6.50;4.63;;;;;;;9.76;100.00;99688.19;4995696;28;20054;-89
2022/12/29 01:21:01;;;;;;;5.15;3.42;;;;;;;9.92;100.00;99691.38;4992910;28;20022;-89
2022/12/29 01:23:27;;;;;;;6.63;3.80;;;;;;;9.97;100.00;99688.19;4987042;28;20026;-90
2022/12/29 01:25:52;;;;;;;6.30;4.15;;;;;;;9.93;100.00;99684.59;4989779;28;20045;-91
2022/12/29 01:28:18;;;;;;;6.85;3.97;;;;;;;10.06;100.00;99706.53;5004483;28;20026;-90
2022/12/29 01:30:43;;;;;;;5.53;3.72;;;;;;;9.96;100.00;99686.56;4991102;28;20030;-90
2022/12/29 01:33:08;;;;;;;5.22;4.10;;;;;;;10.00;100.00;99680.97;4991175;28;20068;-89
2022/12/29 01:35:34;;;;;;;6.68;3.13;;;;;;;10.04;100.00;99681.78;4990065;28;20030;-90
2022/12/29 01:37:59;;;;;;;5.50;3.45;;;;;;;10.09;100.00;99683.34;4991166;28;20014;-91
2022/12/29 01:40:24;;;;;;;5.85;3.58;;;;;;;9.90;100.00;99665.81;4990408;28;20050;-89
2022/12/29 01:42:50;;;;;;;5.75;3.28;;;;;;;10.03;100.00;99676.56;4988948;28;20117;-89
2022/12/29 01:45:17;;;;;;;8.40;4.00;;;;;;;10.00;100.00;99674.59;4986516;28;20026;-89
2022/12/29 01:47:51;;;;;;;4.75;3.20;;;;;;;9.94;100.00;99666.63;4998776;28;20030;-89
2022/12/29 01:50:27;;;;;;;5.70;2.92;;;;;;;10.06;100.00;99684.19;4997035;28;20083;-89
2022/12/29 01:53:15;;;;;;;6.50;3.55;;;;;;;10.06;100.00;99686.97;4989131;28;20549;-89
2022/12/29 01:55:48;;;;;;;6.97;3.85;;;;;;;10.04;100.00;99694.97;4988050;28;20044;-89
2022/12/29 01:58:16;;;;;;;5.20;3.17;;;;;;;10.04;100.00;99686.56;4974225;28;20052;-89
2022/12/29 02:00:41;;;;;;;7.10;3.47;;;;;;;9.95;100.00;99684.19;4990393;28;20041;-88
2022/12/29 02:03:08;;;;;;;6.63;3.38;;;;;;;9.87;100.00;99683.41;4990075;28;20030;-89
2022/12/29 02:05:42;;;;;;;7.97;4.80;;;;;;;9.92;100.00;99705.34;4989643;28;20058;-89
2022/12/29 02:08:09;;;;;;;5.07;3.58;;;;;;;9.80;100.00;99689.00;4988660;28;20065;-89
2022/12/29 02:10:35;;;;;;;7.57;3.72;;;;;;;9.81;100.00;99706.59;4984124;28;20804;-89
2022/12/29 02:13:01;;;;;;;5.63;3.50;;;;;;;9.80;100.00;99693.78;4987752;28;20478;-90
2022/12/29 02:15:50;;;;;;;5.68;3.15;;;;;;;9.77;100.00;99699.00;5002451;28;20030;-90
2022/12/29 02:18:31;;;;;;;5.95;3.25;;;;;;;9.65;100.00;99676.25;4996514;28;20027;-90
2022/12/29 02:21:31;;;;;;;7.85;3.10;;;;;;;9.75;100.00;99697.78;4992994;28;20041;-86
2022/12/29 02:24:24;;;;;;;4.97;3.08;;;;;;;9.69;100.00;99702.19;4982608;28;21602;-86
2022/12/29 02:27:28;;;;;;;4.68;2.88;;;;;;;9.70;100.00;99698.22;4980265;28;20036;-87
2022/12/29 02:30:12;;;;;;;3.50;2.75;;;;;;;9.67;100.00;99704.59;4952105;28;20042;-87
2022/12/29 02:33:10;;;;;;;5.15;3.00;;;;;;;9.69;100.00;99705.00;5000280;28;20471;-89
2022/12/29 02:35:53;;;;;;;5.05;2.72;;;;;;;9.57;100.00;99707.00;4967423;28;20482;-89
2022/12/29 02:38:47;;;;;;;6.28;3.28;;;;;;;9.66;100.00;99700.22;4982870;28;20027;-89
2022/12/29 02:41:30;;;;;;;5.68;3.15;;;;;;;9.62;100.00;99693.84;4993883;28;20395;-89
2022/12/29 02:44:10;;;;;;;5.10;2.95;;;;;;;9.63;100.00;99693.41;4992364;28;20041;-89
2022/12/29 02:46:41;;;;;;;3.65;2.05;;;;;;;9.65;100.00;99693.00;4997841;28;20038;-89
2022/12/29 02:49:22;;;;;;;3.20;2.30;;;;;;;9.67;100.00;99701.78;4978862;28;20058;-88
2022/12/29 02:52:00;;;;;;;3.28;2.40;;;;;;;9.70;100.00;99690.63;4980435;28;20042;-88
2022/12/29 02:54:42;;;;;;;3.92;2.33;;;;;;;9.66;100.00;99694.63;4991461;28;20094;-88
2022/12/29 02:57:22;;;;;;;5.07;2.53;;;;;;;9.63;100.00;99689.81;4993399;28;20382;-88
2022/12/29 02:59:56;;;;;;;5.63;3.05;;;;;;;9.66;100.00;99667.47;5011536;28;20405;-87
2022/12/29 03:02:37;;;;;;;4.05;2.88;;;;;;;9.78;100.00;99683.00;4993139;28;20038;-88
2022/12/29 03:05:21;;;;;;;5.38;2.35;;;;;;;9.73;100.00;99673.03;4997597;28;20054;-88
2022/12/29 03:08:18;;;;;;;4.10;2.55;;;;;;;9.68;100.00;99687.44;5003234;28;20030;-89
2022/12/29 03:11:00;;;;;;;5.68;2.50;;;;;;;9.69;100.00;99686.22;4977770;28;20066;-89
2022/12/29 03:16:45;;;;;;;5.97;3.22;;;;;;;9.65;100.00;99670.66;4990392;28;20423;-90
2022/12/29 03:19:23;;;;;;;5.00;2.88;;;;;;;9.70;100.00;99667.47;5003740;28;20109;-89
2022/12/29 03:24:43;;;;;;;4.55;2.40;;;;;;;9.76;100.00;99683.44;4984502;28;20109;-88
2022/12/29 03:27:13;;;;;;;5.72;3.47;;;;;;;9.73;100.00;99666.66;4983806;28;20479;-88
2022/12/29 03:29:48;;;;;;;6.93;3.08;;;;;;;9.75;100.00;99667.06;4998595;28;20034;-88
2022/12/29 03:32:15;;;;;;;3.17;2.72;;;;;;;9.73;100.00;99661.06;5002073;28;20026;-87
2022/12/29 03:34:40;;;;;;;6.03;2.58;;;;;;;9.74;100.00;99673.88;4985169;28;20038;-88
2022/12/29 03:37:16;;;;;;;7.90;2.70;;;;;;;9.72;100.00;99665.09;4987077;28;20030;-88
2022/12/29 03:39:42;;;;;;;5.15;2.42;;;;;;;9.74;100.00;99660.69;4985851;28;20038;-87
2022/12/29 03:42:18;;;;;;;5.97;2.40;;;;;;;9.75;100.00;99658.69;4985024;28;20038;-89
2022/12/29 03:44:45;;;;;;;6.25;2.00;;;;;;;9.84;100.00;99661.84;5010366;28;20041;-90
2022/12/29 03:47:13;;;;;;;4.85;2.05;;;;;;;9.70;100.00;99659.09;4992599;28;20076;-88
2022/12/29 03:49:39;;;;;;;3.05;1.85;;;;;;;9.81;100.00;99679.44;5005302;28;20507;-89
2022/12/29 03:52:05;;;;;;;5.00;1.73;;;;;;;9.88;100.00;99657.03;5006309;28;20026;-90
2022/12/29 03:54:31;;;;;;;2.65;1.50;;;;;;;9.80;100.00;99661.06;4990351;28;20026;-90
2022/12/29 03:56:56;;;;;;;4.30;1.55;;;;;;;9.74;100.00;99652.28;4989892;28;20971;-91
2022/12/29 03:59:22;;;;;;;2.90;1.90;;;;;;;9.88;100.00;99648.66;5003587;28;20038;-89
2022/12/29 04:01:47;;;;;;;4.30;1.60;;;;;;;9.78;100.00;99660.66;4988078;28;20027;-89
2022/12/29 04:04:13;;;;;;;3.33;1.77;;;;;;;9.67;100.00;99638.31;4991002;28;20061;-89
2022/12/29 04:06:38;;;;;;;5.28;1.88;;;;;;;9.71;100.00;99643.91;4990334;28;20026;-89
2022/12/29 04:09:04;;;;;;;5.78;1.70;;;;;;;9.82;100.00;99667.03;4991383;28;20026;-89
2022/12/29 04:11:29;;;;;;;5.75;1.50;;;;;;;9.72;100.00;99681.84;5004554;28;20387;-89
2022/12/29 04:13:55;;;;;;;8.80;1.60;;;;;;;9.57;100.00;99656.72;4992634;28;20034;-89
2022/12/29 04:16:20;;;;;;;3.42;1.48;;;;;;;9.81;100.00;99682.22;4995653;28;20030;-89
2022/12/29 04:18:45;;;;;;;6.15;1.88;;;;;;;9.64;100.00;99674.66;4991675;28;20084;-89
2022/12/29 04:21:11;;;;;;;11.68;2.45;;;;;;;9.63;100.00;99678.66;4992656;28;20061;-89
2022/12/29 04:23:38;;;;;;;6.18;2.40;;;;;;;9.70;100.00;99684.25;4994991;28;20030;-89
2022/12/29 04:26:06;;;;;;;9.88;1.80;;;;;;;9.69;100.00;99682.63;4994634;28;20398;-89
2022/12/29 04:28:31;;;;;;;6.80;2.00;;;;;;;9.63;100.00;99685.03;4983419;28;20117;-90
2022/12/29 04:30:56;;;;;;;7.85;1.70;;;;;;;9.55;100.00;99691.84;4985778;28;20117;-90
2022/12/29 04:33:22;;;;;;;5.93;1.80;;;;;;;9.72;100.00;99676.25;4990362;28;20053;-90
2022/12/29 04:35:48;;;;;;;6.38;1.83;;;;;;;9.65;100.00;99690.22;4988851;28;20481;-90
2022/12/29 04:38:14;;;;;;;10.18;3.10;;;;;;;9.54;100.00;99677.06;5005839;28;20030;-89
2022/12/29 04:40:42;;;;;;;4.97;1.48;;;;;;;9.66;100.00;99694.63;4992151;28;20054;-90
2022/12/29 04:43:08;;;;;;;7.90;1.70;;;;;;;9.72;100.00;99687.44;4989806;28;20030;-90
2022/12/29 04:45:33;;;;;;;5.28;1.83;;;;;;;9.58;100.00;99682.66;4990738;28;20081;-90
2022/12/29 04:47:59;;;;;;;6.97;1.80;;;;;;;9.60;100.00;99680.25;4992760;28;20060;-90
2022/12/29 04:50:29;;;;;;;5.13;1.75;;;;;;;9.64;100.00;99692.22;4988651;28;20037;-90
2022/12/29 04:52:54;;;;;;;5.65;1.73;;;;;;;9.65;100.00;99679.03;4982668;28;20034;-88
2022/12/29 04:55:20;;;;;;;6.13;1.67;;;;;;;9.57;100.00;99676.28;4992710;28;20034;-90
2022/12/29 04:57:46;;;;;;;7.93;1.58;;;;;;;9.65;100.00;99690.22;4992235;28;20026;-90
2022/12/29 05:00:12;;;;;;;3.47;1.63;;;;;;;9.74;100.00;99694.22;4994426;28;20512;-90
2022/12/29 05:02:38;;;;;;;4.38;1.90;;;;;;;9.53;100.00;99675.47;4989878;28;20375;-89
2022/12/29 05:05:04;;;;;;;7.25;1.88;;;;;;;9.71;100.00;99692.22;4991598;28;20046;-89
2022/12/29 05:07:30;;;;;;;3.60;1.88;;;;;;;9.68;100.00;99676.25;4989253;28;20030;-89
2022/12/29 05:09:55;;;;;;;8.27;2.67;;;;;;;9.59;100.00;99667.47;4995701;28;20026;-89
2022/12/29 05:12:20;;;;;;;8.57;2.22;;;;;;;9.72;100.00;99681.84;4991316;28;20125;-89
2022/12/29 05:14:46;;;;;;;10.98;2.67;;;;;;;9.70;100.00;99673.06;4993851;28;20049;-90
2022/12/29 05:17:11;;;;;;;7.80;3.33;;;;;;;9.56;100.00;99663.47;4984379;28;20026;-90
2022/12/29 05:19:38;;;;;;;8.23;2.20;;;;;;;9.65;100.00;99679.84;4987674;28;20070;-89
2022/12/29 05:22:04;;;;;;;9.93;2.65;;;;;;;9.63;100.00;99682.22;4993535;28;20033;-89
2022/12/29 05:24:29;;;;;;;7.97;2.35;;;;;;;9.60;100.00;99685.84;5007572;28;20546;-88
2022/12/29 05:26:55;;;;;;;14.45;2.55;;;;;;;9.66;100.00;99692.63;4989500;28;20169;-88
2022/12/29 05:29:20;;;;;;;8.38;2.25;;;;;;;9.54;100.00;99674.25;4990963;28;20034;-89
2022/12/29 05:31:45;;;;;;;7.43;2.35;;;;;;;9.52;100.00;99701.78;5003119;28;20030;-89
2022/12/29 05:34:11;;;;;;;9.18;1.85;;;;;;;9.64;100.00;99722.16;5000856;28;20023;-89
2022/12/29 05:36:37;;;;;;;7.55;2.28;;;;;;;9.68;100.00;99711.78;4985885;28;20118;-89
2022/12/29 05:39:02;;;;;;;6.70;1.88;;;;;;;9.52;100.00;99699.00;4992254;28;20064;-89
2022/12/29 05:41:28;;;;;;;6.40;1.90;;;;;;;9.65;100.00;99718.16;4991629;28;20053;-87
2022/12/29 05:43:53;;;;;;;12.13;2.35;;;;;;;9.48;100.00;99703.78;4991491;28;20037;-87
2022/12/29 05:46:18;;;;;;;12.98;2.03;;;;;;;9.52;100.00;99712.19;4991182;28;20516;-87
2022/12/29 05:48:47;;;;;;;12.57;2.00;;;;;;;9.57;100.00;99709.78;4990032;28;20034;-88
2022/12/29 05:51:12;;;;;;;9.27;2.10;;;;;;;9.54;100.00;99709.78;4990296;28;20068;-89
2022/12/29 05:53:38;;;;;;;7.35;2.35;;;;;;;9.47;100.00;99702.22;4985675;28;20440;-89
2022/12/29 05:56:03;;;;;;;7.30;1.65;;;;;;;9.48;100.00;99712.19;5006850;28;20038;-89
2022/12/29 05:58:28;;;;;;;10.32;2.30;;;;;;;9.53;100.00;99725.75;4990293;28;20065;-89
2022/12/29 06:00:54;;;;;;;6.65;1.50;;;;;;;9.38;100.00;99707.38;5004245;28;20034;-89
2022/12/29 06:03:19;;;;;;;7.13;2.15;;;;;;;9.52;100.00;99726.94;4995782;28;20715;-89
2022/12/29 06:05:46;;;;;;;9.60;2.53;;;;;;;9.56;100.00;99719.34;4987252;28;20517;-88
2022/12/29 06:08:12;;;;;;;8.73;2.10;;;;;;;9.46;100.00;99722.94;4991071;28;20676;-88
2022/12/29 06:10:37;;;;;;;9.57;1.65;;;;;;;9.50;100.00;99732.13;4998229;28;20030;-88
2022/12/29 06:13:05;;;;;;;9.00;1.83;;;;;;;9.37;100.00;99725.34;4981541;28;20493;-89
2022/12/29 06:15:31;;;;;;;5.47;1.77;;;;;;;9.28;100.00;99713.78;5000195;28;20058;-88
2022/12/29 06:17:56;;;;;;;12.05;2.53;;;;;;;9.46;100.00;99742.50;4988714;28;20022;-89
2022/12/29 06:20:22;;;;;;;9.23;2.88;;;;;;;9.44;100.00;99761.66;4983547;28;20513;-89
2022/12/29 06:22:47;;;;;;;12.48;2.40;;;;;;;9.42;100.00;99752.88;4983060;28;20054;-89
2022/12/29 06:25:13;;;;;;;13.02;2.78;;;;;;;9.29;100.00;99738.50;4983327;28;20401;-89
2022/12/29 06:27:39;;;;;;;11.50;2.33;;;;;;;9.23;100.00;99725.31;4978743;28;20255;-89
2022/12/29 06:30:05;;;;;;;9.20;1.83;;;;;;;9.26;100.00;99738.50;4974886;28;20536;-89
2022/12/29 06:32:30;;;;;;;11.10;3.03;;;;;;;9.31;100.00;99746.47;4985024;28;20022;-89
2022/12/29 06:34:55;;;;;;;15.98;3.63;;;;;;;9.24;100.00;99761.22;4984570;28;20133;-89
2022/12/29 06:37:21;;;;;;;14.20;3.50;;;;;;;9.20;100.00;99756.84;4995555;28;20224;-88
2022/12/29 06:39:46;;;;;;;20.55;6.00;;;;;;;9.22;100.00;99751.66;4986061;28;20129;-89
2022/12/29 06:42:11;;;;;;;14.07;3.38;;;;;;;9.14;100.00;99750.84;4977208;28;20034;-89
2022/12/29 06:44:37;;;;;;;12.55;2.72;;;;;;;9.09;100.00;99754.81;4980797;28;20474;-88
2022/12/29 06:47:02;;;;;;;13.73;2.38;;;;;;;9.08;100.00;99755.22;4984948;28;20455;-87
2022/12/29 06:49:28;;;;;;;9.88;2.88;;;;;;;9.12;100.00;99751.22;5007250;28;20033;-89
2022/12/29 06:51:53;;;;;;;12.30;2.25;;;;;;;9.21;100.00;99775.97;4981535;28;20030;-89
2022/12/29 06:54:18;;;;;;;22.00;4.50;;;;;;;9.23;100.00;99778.38;4991573;28;20347;-89
2022/12/29 06:56:44;;;;;;;13.55;3.70;;;;;;;9.21;100.00;99769.59;4986456;28;20026;-87
2022/12/29 06:59:09;;;;;;;12.68;2.28;;;;;;;9.14;100.00;99765.59;4989303;28;20030;-88
2022/12/29 07:01:35;;;;;;;16.63;3.63;;;;;;;9.06;100.00;99752.03;4986373;28;20038;-88
2022/12/29 07:04:02;;;;;;;9.00;2.83;;;;;;;9.15;100.00;99778.38;4985932;28;20030;-88
2022/12/29 07:06:27;;;;;;;20.25;5.57;;;;;;;9.09;100.00;99768.78;4987744;28;20532;-89
2022/12/29 07:08:54;;;;;;;14.57;3.30;;;;;;;9.01;100.00;99758.78;4988331;28;20057;-88
2022/12/29 07:11:20;;;;;;;14.38;3.67;;;;;;;9.23;100.00;99783.97;4992635;28;20504;-89
2022/12/29 07:13:46;;;;;;;21.02;3.42;;;;;;;9.10;100.00;99752.81;4990497;28;20041;-89
2022/12/29 07:16:11;;;;;;;11.50;2.17;;;;;;;9.25;100.00;99787.16;4986318;28;20039;-88
2022/12/29 07:18:37;;;;;;;15.88;3.13;;;;;;;9.23;100.00;99790.34;4988913;28;20026;-88
2022/12/29 07:21:03;;;;;;;27.00;3.72;;;;;;;9.16;100.00;99774.38;5001416;28;20030;-90
2022/12/29 07:23:28;;;;;;;11.50;1.80;;;;;;;9.26;100.00;99797.16;4989897;28;20026;-88
2022/12/29 07:26:02;;;;;;;11.32;2.53;;;;;;;9.23;100.00;99798.72;5003637;28;20094;-88
2022/12/29 07:28:27;;;;;;;12.77;2.25;;;;;;;9.12;100.00;99787.53;4986171;28;20398;-89
2022/12/29 07:30:53;;;;;;;12.90;3.17;;;;;;;9.21;100.00;99801.09;4989362;28;20026;-88
2022/12/29 07:33:18;;;;;;;9.38;2.30;;;;;;;9.20;100.00;99796.72;4988750;28;20083;-89
2022/12/29 07:35:44;;;;;;;19.13;2.13;;;;;;;9.15;100.00;99795.13;4989929;28;20041;-89
2022/12/29 07:38:09;;;;;;;15.52;2.92;;;;;;;9.13;100.00;99802.31;4988596;28;20363;-88
2022/12/29 07:40:34;;;;;;;14.05;2.75;;;;;;;9.02;100.00;99796.66;4990954;28;20492;-88
2022/12/29 07:43:00;;;;;;;19.25;3.17;;;;;;;9.08;100.00;99806.25;4987635;28;20041;-89
2022/12/29 07:45:25;;;;;;;12.65;2.40;;;;;;;9.09;100.00;99807.06;4988685;28;20026;-88
2022/12/29 07:47:50;;;;;;;16.13;3.50;;;;;;;8.91;100.00;99779.09;4987108;28;20030;-88
2022/12/29 07:50:16;;;;;;;23.20;3.25;;;;;;;8.92;100.00;99772.31;4986802;28;20022;-88
2022/12/29 07:52:41;;;;;;;14.48;3.22;;;;;;;9.05;100.00;99790.31;4997695;28;20030;-86
2022/12/29 07:55:07;;;;;;;14.75;2.95;;;;;;;9.09;100.00;99791.13;4994806;28;20116;-89
2022/12/29 07:57:33;;;;;;;13.18;3.13;;;;;;;9.03;100.00;99789.91;4984042;28;20033;-89
2022/12/29 07:59:58;;;;;;;24.27;3.97;;;;;;;9.06;100.00;99800.25;4992460;28;20026;-89
2022/12/29 08:02:25;;;;;;;21.23;3.40;;;;;;;9.10;100.00;99803.88;4988102;28;20419;-90
2022/12/29 08:04:51;;;;;;;13.02;2.90;;;;;;;8.92;100.00;99787.06;4990938;28;20391;-89
2022/12/29 08:07:16;;;;;;;15.95;3.67;;;;;;;9.09;100.00;99802.28;4998672;28;20037;-89
2022/12/29 08:09:41;;;;;;;22.23;4.32;;;;;;;9.11;100.00;99813.06;4989706;28;20034;-89
2022/12/29 08:12:10;;;;;;;21.55;3.58;;;;;;;8.99;100.00;99794.66;5002041;28;20026;-88
2022/12/29 08:14:36;;;;;;;12.07;2.40;;;;;;;9.00;100.00;99787.09;4985055;28;20144;-88
2022/12/29 08:17:01;;;;;;;8.40;2.17;;;;;;;9.01;100.00;99795.06;4985541;28;20018;-88
2022/12/29 08:19:26;;;;;;;12.20;2.38;;;;;;;9.14;100.00;99815.84;4991583;28;20510;-88
2022/12/29 08:21:53;;;;;;;13.00;2.40;;;;;;;9.14;100.00;99827.00;4990025;28;20030;-87
2022/12/29 08:24:18;;;;;;;12.48;2.90;;;;;;;9.13;100.00;99825.44;4999925;28;20121;-88
2022/12/29 08:26:44;;;;;;;12.98;2.47;;;;;;;9.01;100.00;99797.88;5001826;28;20390;-88
2022/12/29 08:29:09;;;;;;;13.68;2.30;;;;;;;9.00;100.00;99801.84;4990233;28;20038;-88
2022/12/29 08:31:35;;;;;;;8.48;2.05;;;;;;;8.95;100.00;99797.44;4986770;28;20030;-87
2022/12/29 08:34:03;;;;;;;11.38;2.17;;;;;;;9.01;100.00;99820.19;4982509;28;20710;-87
2022/12/29 08:36:29;;;;;;;16.92;2.45;;;;;;;9.01;100.00;99806.25;4988882;28;20112;-88
2022/12/29 08:38:54;;;;;;;19.02;2.75;;;;;;;8.84;100.00;99770.69;4989035;28;20113;-87
2022/12/29 08:41:20;;;;;;;14.50;2.60;;;;;;;8.94;100.00;99784.69;4984006;28;20467;-88
2022/12/29 08:43:47;;;;;;;14.77;2.85;;;;;;;8.90;100.00;99791.47;4985520;28;20034;-86
2022/12/29 08:46:13;;;;;;;11.82;3.38;;;;;;;9.01;100.00;99814.63;4983034;28;20185;-87
2022/12/29 08:48:38;;;;;;;14.55;4.00;;;;;;;8.93;100.00;99815.78;4982398;28;20129;-86
2022/12/29 08:51:03;;;;;;;19.40;4.22;;;;;;;9.03;100.00;99826.19;4986472;28;20161;-87
2022/12/29 08:53:29;;;;;;;16.35;3.10;;;;;;;8.94;100.00;99822.97;4982889;28;20042;-87
2022/12/29 08:55:59;;;;;;;22.50;5.57;;;;;;;8.85;100.00;99830.88;4982324;28;20165;-87
2022/12/29 08:58:26;;;;;;;17.73;3.33;;;;;;;8.86;100.00;99822.13;4977512;28;20434;-85
2022/12/29 09:00:55;;;;;;;20.80;4.75;;;;;;;8.90;100.00;99822.94;4982515;28;20153;-86
2022/12/29 09:03:22;;;;;;;33.47;5.82;;;;;;;8.84;100.00;99820.94;4981775;28;20539;-85
2022/12/29 09:05:49;;;;;;;14.80;2.88;;;;;;;8.92;100.00;99819.78;4972740;28;20082;-84
2022/12/29 09:08:16;;;;;;;18.15;3.60;;;;;;;8.88;100.00;99816.16;4987040;28;20033;-84
2022/12/29 09:10:41;;;;;;;13.75;3.78;;;;;;;8.77;100.00;99804.97;4983902;28;20065;-88
2022/12/29 09:13:07;;;;;;;17.15;3.17;;;;;;;8.76;100.00;99806.13;4980036;28;20126;-87
2022/12/29 09:15:32;;;;;;;12.85;2.88;;;;;;;8.73;100.00;99809.72;4984904;28;20022;-86
2022/12/29 09:17:57;;;;;;;21.90;2.88;;;;;;;8.75;100.00;99805.34;4977556;28;20064;-86
2022/12/29 09:20:23;;;;;;;18.63;4.78;;;;;;;8.70;100.00;99796.53;4988386;28;20057;-86
2022/12/29 09:22:49;;;;;;;25.48;3.63;;;;;;;8.72;100.00;99783.78;4983429;28;20397;-87
2022/12/29 09:25:14;;;;;;;20.15;4.20;;;;;;;8.93;100.00;99816.56;4979440;28;20394;-86
2022/12/29 09:27:40;;;;;;;16.63;2.83;;;;;;;8.98;100.00;99807.03;4974669;28;20328;-84
2022/12/29 09:30:08;;;;;;;26.88;4.78;;;;;;;9.10;100.00;99814.25;5001033;28;20088;-86
2022/12/29 09:32:34;;;;;;;14.38;3.00;;;;;;;9.07;100.00;99821.41;4984597;28;20129;-86
2022/12/29 09:34:59;;;;;;;17.77;4.40;;;;;;;9.07;100.00;99815.84;4980383;28;20107;-86
2022/12/29 09:37:25;;;;;;;13.85;3.00;;;;;;;9.16;100.00;99821.84;4982488;28;20398;-86
2022/12/29 09:39:50;;;;;;;19.48;3.28;;;;;;;9.07;100.00;99815.03;4987467;28;20041;-86
2022/12/29 09:42:37;;;;;;;18.42;3.67;;;;;;;9.07;100.00;99815.84;4984578;28;20153;-88
2022/12/29 09:45:16;;;;;;;19.88;3.10;;;;;;;9.13;100.00;99833.81;4979558;28;20033;-86
2022/12/29 09:47:46;;;;;;;16.35;3.30;;;;;;;8.99;100.00;99825.38;4998417;28;20490;-89
2022/12/29 09:50:22;;;;;;;17.15;3.55;;;;;;;9.08;100.00;99845.34;4985841;28;20019;-88
2022/12/29 09:52:57;;;;;;;12.02;3.58;;;;;;;9.03;100.00;99854.09;4998602;28;20116;-87
2022/12/29 09:55:37;;;;;;;19.63;3.17;;;;;;;8.94;100.00;99842.50;4990044;28;20038;-88
2022/12/29 09:58:10;;;;;;;17.45;3.63;;;;;;;9.02;100.00;99863.66;4979401;28;20508;-88
2022/12/29 10:00:40;;;;;;;15.35;2.67;;;;;;;8.98;100.00;99862.88;4980327;28;20112;-87
2022/12/29 10:03:14;;;;;;;13.40;2.80;;;;;;;8.98;100.00;99874.03;4983468;28;20376;-87
2022/12/29 10:05:55;;;;;;;18.10;3.22;;;;;;;8.92;100.00;99870.00;4982535;28;20085;-87
2022/12/29 10:08:25;;;;;;;14.02;2.60;;;;;;;8.98;100.00;99885.19;4995725;28;20046;-87
2022/12/29 10:10:56;;;;;;;14.82;2.53;;;;;;;8.95;100.00;99897.13;4977818;28;20040;-87
2022/12/29 10:13:34;;;;;;;18.80;2.95;;;;;;;8.74;100.00;99869.91;4981251;28;20041;-87
2022/12/29 10:16:02;;;;;;;13.80;3.47;;;;;;;8.80;100.00;99901.03;4993656;28;20401;-87
2022/12/29 10:19:06;;;;;;;12.32;3.00;;;;;;;8.73;100.00;99897.00;4979441;28;20037;-87
2022/12/29 10:21:58;;;;;;;23.02;4.25;;;;;;;8.63;100.00;99908.09;4976884;28;20037;-87
2022/12/29 10:24:26;;;;;;;22.40;4.47;;;;;;;8.55;100.00;99901.66;4983453;28;20042;-87
2022/12/29 10:26:52;;;;;;;8.80;3.22;;;;;;;8.57;100.00;99927.19;4982112;28;20030;-87
2022/12/29 10:29:27;;;;;;;12.02;2.85;;;;;;;8.61;100.00;99927.22;4984058;28;20026;-87
2022/12/29 10:32:05;;;;;;;14.25;3.28;;;;;;;8.49;100.00;99929.09;4981410;28;20144;-87
2022/12/29 10:34:38;;;;;;;10.63;2.63;;;;;;;8.39;100.00;99920.63;4996360;28;20072;-87
2022/12/29 10:37:38;;;;;;;17.65;3.33;;;;;;;8.45;100.00;99935.84;4986152;28;20084;-86
2022/12/29 10:40:16;;;;;;;16.60;3.28;;;;;;;8.36;100.00;99922.22;4995889;28;20112;-88
2022/12/29 10:42:48;;;;;;;21.13;3.65;;;;;;;8.40;100.00;99942.56;4981719;28;20022;-88
2022/12/29 10:45:16;;;;;;;9.70;3.30;;;;;;;8.38;100.00;99947.72;4997041;28;20078;-88
2022/12/29 10:47:57;;;;;;;18.52;4.80;;;;;;;8.28;100.00;99920.56;4990662;28;20398;-87
2022/12/29 10:50:24;;;;;;;15.55;3.88;;;;;;;8.43;100.00;99943.81;4987861;28;20027;-87
2022/12/29 10:52:50;;;;;;;19.35;4.78;;;;;;;8.49;100.00;99959.00;4986845;28;20502;-87
2022/12/29 10:55:24;;;;;;;13.27;3.33;;;;;;;8.65;100.00;99951.16;4983841;28;20402;-86
2022/12/29 10:57:50;;;;;;;11.40;3.42;;;;;;;8.63;100.00;99961.91;4984936;28;20034;-86
2022/12/29 11:00:20;;;;;;;17.45;4.47;;;;;;;8.73;100.00;99963.97;4987973;28;20019;-87
2022/12/29 11:03:08;;;;;;;19.95;5.45;;;;;;;8.64;100.00;99983.00;4987143;28;20053;-86
2022/12/29 11:05:53;;;;;;;14.15;3.45;;;;;;;8.62;100.00;99971.47;4998216;28;20422;-87
2022/12/29 11:08:30;;;;;;;10.10;3.15;;;;;;;8.66;100.00;99983.44;4987866;28;20437;-87
2022/12/29 11:11:04;;;;;;;20.10;4.03;;;;;;;8.67;100.00;99990.63;4988288;28;20037;-86
2022/12/29 11:13:45;;;;;;;15.68;2.28;;;;;;;8.68;100.00;100002.56;4987464;28;20034;-86
2022/12/29 11:16:12;;;;;;;12.20;3.78;;;;;;;8.67;100.00;99999.00;5003889;28;20385;-87
2022/12/29 11:18:39;;;;;;;16.13;4.50;;;;;;;8.67;100.00;99999.00;4986334;28;20394;-88
2022/12/29 11:21:26;;;;;;;12.50;3.22;;;;;;;8.68;100.00;100000.59;4984665;28;20478;-86
2022/12/29 11:23:58;;;;;;;13.52;3.40;;;;;;;8.65;100.00;99995.78;4983936;28;20093;-86
2022/12/29 11:26:25;;;;;;;18.02;5.35;;;;;;;8.71;100.00;100004.63;4984119;28;20099;-86
2022/12/29 11:29:23;;;;;;;9.85;4.25;;;;;;;8.79;100.00;100013.81;4979678;28;20041;-87
2022/12/29 11:31:53;;;;;;;17.95;3.58;;;;;;;8.71;100.00;100001.81;5002232;28;20474;-86
2022/12/29 11:34:26;;;;;;;12.43;4.05;;;;;;;8.73;100.00;100019.78;4986715;28;20030;-86
2022/12/29 11:36:58;;;;;;;20.60;3.20;;;;;;;8.67;100.00;100010.16;4985020;28;20121;-87
2022/12/29 11:39:30;;;;;;;14.15;4.68;;;;;;;8.64;100.00;100013.69;4979056;28;20525;-87
2022/12/29 11:41:55;;;;;;;19.08;3.72;;;;;;;8.82;100.00;100035.38;4987136;28;20041;-87
2022/12/29 11:44:21;;;;;;;23.27;5.05;;;;;;;8.79;100.00;100033.34;4990269;28;20023;-87
2022/12/29 11:46:51;;;;;;;17.02;4.00;;;;;;;8.71;100.00;100026.94;4982918;28;20038;-87
2022/12/29 11:49:24;;;;;;;15.43;3.88;;;;;;;8.83;100.00;100046.13;4998407;28;20168;-87
2022/12/29 11:51:54;;;;;;;14.93;4.40;;;;;;;8.82;100.00;100038.19;4997628;28;20553;-84
2022/12/29 11:54:27;;;;;;;19.77;4.95;;;;;;;9.51;100.00;100052.19;5013902;28;20057;-92
2022/12/29 11:56:54;;;;;;;29.55;5.25;;;;;;;8.95;100.00;100031.88;4989250;28;20026;-93
2022/12/29 11:59:31;;;;;;;14.70;4.47;;;;;;;9.01;100.00;100065.03;4993761;28;20027;-93
2022/12/29 12:02:00;;;;;;;19.05;5.90;;;;;;;9.01;100.00;100063.03;4986808;28;20557;-93
2022/12/29 12:04:30;;;;;;;26.45;4.93;;;;;;;9.08;100.00;100065.88;4993409;28;20054;-93
2022/12/29 12:07:14;;;;;;;23.42;6.00;;;;;;;9.02;100.00;100053.47;4986820;28;20147;-89
2022/12/29 12:09:49;;;;;;;29.20;6.40;;;;;;;9.05;100.00;100058.28;4985924;28;20062;-93
2022/12/29 12:12:30;;;;;;;23.55;5.30;;;;;;;9.03;100.00;100069.03;5001827;28;20030;-93
2022/12/29 12:15:01;;;;;;;20.50;4.10;;;;;;;9.03;100.00;100062.66;4989751;28;20034;-93